Time;durP1;ratioP1;P1;durP2;ratioP2;P2;SDS_P1;SDS_P2;PMS_P1;PMS_P2;Temp;Humidity;BMP_temperature;BMP_pressure;BME280_temperature;BME280_humidity;BME280_pressure;Samples;Min_cycle;Max_cycle;Signal;HPM_P1;HPM_P2
2023/01/24 00:00:52;;;;;;;19.40;15.67;;;5.10;99.90;;;;;;5056392;28;20543;-70
2023/01/24 00:03:18;;;;;;;16.97;15.17;;;5.00;99.90;;;;;;5056415;28;20175;-68
2023/01/24 00:05:46;;;;;;;18.40;16.00;;;4.80;99.90;;;;;;5056551;28;20408;-69
2023/01/24 00:08:13;;;;;;;20.47;15.17;;;4.60;99.90;;;;;;5038372;28;20653;-68
2023/01/24 00:10:39;;;;;;;19.43;15.10;;;4.70;99.90;;;;;;5056416;28;20934;-70
2023/01/24 00:13:05;;;;;;;21.00;17.17;;;4.70;99.90;;;;;;5056475;28;20448;-70
2023/01/24 00:15:31;;;;;;;20.00;15.93;;;4.40;99.90;;;;;;5055763;28;20435;-70
2023/01/24 00:17:57;;;;;;;24.27;16.80;;;4.60;99.90;;;;;;5056242;28;20910;-69
2023/01/24 00:20:23;;;;;;;20.30;17.20;;;4.70;99.90;;;;;;5056233;28;20440;-69
2023/01/24 00:22:48;;;;;;;31.77;22.43;;;4.60;99.90;;;;;;5056056;28;20206;-70
2023/01/24 00:25:14;;;;;;;23.43;18.40;;;4.80;99.90;;;;;;5056409;28;20193;-69
2023/01/24 00:27:39;;;;;;;21.93;16.57;;;4.80;99.90;;;;;;5056032;28;20173;-69
2023/01/24 00:30:05;;;;;;;18.83;16.10;;;4.90;99.90;;;;;;5041367;28;20323;-69
2023/01/24 00:32:31;;;;;;;26.27;19.60;;;4.80;99.90;;;;;;5037735;28;20194;-69
2023/01/24 00:34:57;;;;;;;21.47;15.97;;;4.90;99.90;;;;;;5056061;28;20861;-69
2023/01/24 00:37:23;;;;;;;21.07;16.03;;;5.00;99.90;;;;;;5055783;28;20444;-70
2023/01/24 00:39:49;;;;;;;21.07;17.17;;;4.90;99.90;;;;;;5037908;28;20490;-69
2023/01/24 00:42:14;;;;;;;20.07;16.03;;;5.00;99.90;;;;;;5055550;28;20177;-69
2023/01/24 00:44:40;;;;;;;17.63;14.23;;;5.00;99.90;;;;;;5055655;28;20222;-69
2023/01/24 00:47:05;;;;;;;19.80;15.73;;;5.20;99.90;;;;;;5054356;28;20187;-68
2023/01/24 00:49:31;;;;;;;20.10;16.77;;;5.20;99.90;;;;;;5055622;28;20534;-68
2023/01/24 00:51:57;;;;;;;45.33;30.03;;;5.00;99.90;;;;;;5055673;28;20277;-69
2023/01/24 00:54:22;;;;;;;24.43;18.40;;;5.00;99.90;;;;;;5055375;28;20178;-69
2023/01/24 00:56:48;;;;;;;17.23;15.17;;;5.00;99.90;;;;;;5056056;28;20240;-69
2023/01/24 00:59:13;;;;;;;18.43;16.30;;;5.00;99.90;;;;;;5036686;28;20181;-70
2023/01/24 01:01:39;;;;;;;25.70;18.67;;;4.90;99.90;;;;;;5055062;28;20163;-69
2023/01/24 01:04:05;;;;;;;17.50;14.00;;;4.80;99.90;;;;;;5055777;28;20240;-70
2023/01/24 01:06:31;;;;;;;22.47;16.90;;;4.90;99.90;;;;;;5056031;28;20174;-70
2023/01/24 01:08:57;;;;;;;20.90;16.77;;;4.90;99.90;;;;;;5037614;28;20499;-70
2023/01/24 01:11:22;;;;;;;18.37;14.90;;;5.00;99.90;;;;;;5037410;28;20530;-70
2023/01/24 01:13:48;;;;;;;20.57;16.63;;;5.00;99.90;;;;;;5061217;22;20207;-72
2023/01/24 01:16:17;;;;;;;16.90;15.10;;;5.00;99.90;;;;;;5075417;28;20280;-72
2023/01/24 01:18:43;;;;;;;19.03;15.27;;;4.90;99.90;;;;;;5078560;28;20162;-73
2023/01/24 01:21:15;;;;;;;18.10;14.97;;;5.00;99.90;;;;;;5075589;28;20392;-73
2023/01/24 01:23:41;;;;;;;19.93;16.70;;;5.10;99.90;;;;;;5075896;28;20212;-73
2023/01/24 01:26:12;;;;;;;18.00;14.80;;;5.20;99.90;;;;;;5075576;28;20405;-73
2023/01/24 01:28:38;;;;;;;18.17;14.60;;;5.20;99.90;;;;;;5076114;28;20173;-73
2023/01/24 01:31:04;;;;;;;17.97;14.47;;;5.10;99.90;;;;;;5076278;28;20483;-73
2023/01/24 01:33:29;;;;;;;19.40;15.23;;;5.20;99.90;;;;;;5057100;28;20276;-73
2023/01/24 01:35:55;;;;;;;20.77;15.63;;;5.00;99.90;;;;;;5056895;28;20433;-73
2023/01/24 01:38:24;;;;;;;17.80;15.00;;;4.60;99.90;;;;;;5075260;28;20598;-70
2023/01/24 01:40:50;;;;;;;20.20;15.90;;;4.60;99.90;;;;;;5074761;28;20511;-73
2023/01/24 01:43:18;;;;;;;21.70;16.13;;;4.50;99.90;;;;;;5075550;28;20400;-73
2023/01/24 01:45:46;;;;;;;18.77;15.90;;;4.70;99.90;;;;;;5041770;28;20421;-73
2023/01/24 01:48:20;;;;;;;19.73;16.80;;;4.80;99.90;;;;;;5075417;28;20431;-73
2023/01/24 01:50:55;;;;;;;18.87;16.20;;;4.80;99.90;;;;;;5076240;28;21032;-73
2023/01/24 01:53:23;;;;;;;18.80;15.83;;;4.80;99.90;;;;;;5076328;28;20450;-71
2023/01/24 01:55:55;;;;;;;24.80;16.77;;;4.90;99.90;;;;;;5076236;28;20432;-73
2023/01/24 01:58:21;;;;;;;21.03;16.67;;;5.00;99.90;;;;;;5076041;28;20451;-72
2023/01/24 02:00:50;;;;;;;21.10;17.17;;;4.70;99.90;;;;;;5057420;28;20412;-71
2023/01/24 02:03:38;;;;;;;22.03;17.30;;;4.70;99.90;;;;;;5075441;28;20189;-72
2023/01/24 02:06:06;;;;;;;20.10;15.50;;;4.60;99.90;;;;;;5075492;28;20427;-72
2023/01/24 02:08:33;;;;;;;20.43;16.33;;;4.90;99.90;;;;;;5057259;28;20447;-73
2023/01/24 02:13:45;;;;;;;20.97;17.60;;;5.10;99.90;;;;;;5075931;28;20422;-73
2023/01/24 02:16:12;;;;;;;21.33;17.67;;;5.00;99.90;;;;;;5074872;28;20409;-72
2023/01/24 02:18:40;;;;;;;23.33;18.37;;;5.00;99.90;;;;;;5075329;28;20392;-73
2023/01/24 02:21:14;;;;;;;18.03;16.13;;;5.00;99.90;;;;;;5057547;28;20500;-73
2023/01/24 02:23:49;;;;;;;21.00;16.10;;;5.00;99.90;;;;;;5075427;28;20891;-73
2023/01/24 02:26:17;;;;;;;17.60;14.80;;;4.90;99.90;;;;;;5075618;28;20479;-73
2023/01/24 02:28:48;;;;;;;20.67;16.70;;;4.90;99.90;;;;;;5075510;28;20396;-73
2023/01/24 02:31:14;;;;;;;22.27;17.33;;;5.10;99.90;;;;;;5075038;28;20871;-73
2023/01/24 02:34:32;;;;;;;21.83;16.03;;;5.10;99.90;;;;;;5057294;28;20408;-73
2023/01/24 02:37:06;;;;;;;19.90;15.97;;;5.10;99.90;;;;;;5074594;28;20177;-73
2023/01/24 02:39:47;;;;;;;19.27;15.53;;;5.20;99.90;;;;;;5075237;28;20872;-72
2023/01/24 02:42:16;;;;;;;19.30;14.33;;;5.40;99.90;;;;;;5074522;28;20878;-73
2023/01/24 02:45:07;;;;;;;18.50;15.60;;;5.20;99.90;;;;;;5074702;28;20915;-73
2023/01/24 02:47:37;;;;;;;19.10;15.50;;;5.30;99.90;;;;;;5073389;28;20417;-73
2023/01/24 02:50:04;;;;;;;20.47;16.20;;;5.10;99.90;;;;;;5074935;28;20388;-73
2023/01/24 02:55:14;;;;;;;18.10;15.50;;;4.80;99.90;;;;;;5074866;28;20419;-73
2023/01/24 03:00:24;;;;;;;17.93;14.83;;;4.80;99.90;;;;;;5073896;28;20749;-72
2023/01/24 03:02:49;;;;;;;18.17;14.23;;;5.00;99.90;;;;;;5074768;28;20480;-72
2023/01/24 03:05:15;;;;;;;18.27;15.70;;;5.00;99.90;;;;;;5055445;28;20209;-73
2023/01/24 03:07:46;;;;;;;19.23;15.33;;;4.90;99.90;;;;;;5073952;28;20181;-73
2023/01/24 03:10:15;;;;;;;18.00;14.87;;;4.90;99.90;;;;;;5073634;28;20608;-73
2023/01/24 03:34:48;;;;;;;20.60;15.33;;;4.50;99.90;;;;;;5073006;28;20418;-73
2023/01/24 03:37:15;;;;;;;18.63;15.23;;;4.30;99.90;;;;;;5073129;28;20376;-73
2023/01/24 03:39:59;;;;;;;20.20;15.63;;;4.50;99.90;;;;;;5073377;28;20422;-73
2023/01/24 03:42:28;;;;;;;17.80;14.57;;;4.50;99.90;;;;;;5038051;28;20770;-73
2023/01/24 03:44:53;;;;;;;16.83;14.97;;;4.40;99.90;;;;;;5035205;28;20799;-73
2023/01/24 03:47:19;;;;;;;19.63;15.73;;;4.40;99.90;;;;;;5040609;28;20412;-73
2023/01/24 03:52:28;;;;;;;18.00;14.40;;;4.50;99.90;;;;;;5073161;28;20197;-73
2023/01/24 03:55:03;;;;;;;16.77;14.17;;;4.40;99.90;;;;;;5054994;28;20424;-72
2023/01/24 03:57:29;;;;;;;22.20;15.00;;;4.30;99.90;;;;;;5073456;28;20150;-73
2023/01/24 03:59:55;;;;;;;20.93;16.13;;;4.40;99.90;;;;;;5072881;28;20416;-73
2023/01/24 04:02:21;;;;;;;18.97;15.40;;;4.40;99.90;;;;;;5072762;28;20532;-73
2023/01/24 04:07:31;;;;;;;21.80;16.73;;;4.40;99.90;;;;;;5073149;28;20890;-73
2023/01/24 04:09:58;;;;;;;18.80;16.10;;;4.40;99.90;;;;;;5072809;28;20404;-73
2023/01/24 04:12:24;;;;;;;19.93;15.83;;;4.20;99.90;;;;;;5072526;28;20186;-72
2023/01/24 04:14:50;;;;;;;18.90;14.83;;;4.20;99.90;;;;;;5054416;28;20456;-73
2023/01/24 04:17:16;;;;;;;21.57;15.60;;;4.10;99.90;;;;;;5072864;28;20407;-73
2023/01/24 04:19:42;;;;;;;22.87;15.23;;;4.10;99.90;;;;;;5072681;28;20584;-73
2023/01/24 04:22:08;;;;;;;20.10;15.83;;;4.10;99.90;;;;;;5054789;28;20170;-73
2023/01/24 04:24:33;;;;;;;18.37;14.93;;;4.10;99.90;;;;;;5072126;28;20859;-73
2023/01/24 04:26:59;;;;;;;19.70;14.97;;;4.20;99.90;;;;;;5072990;28;20167;-72
2023/01/24 04:29:24;;;;;;;20.63;15.47;;;4.20;99.90;;;;;;5072640;28;20166;-73
2023/01/24 04:31:50;;;;;;;21.57;15.97;;;4.50;99.90;;;;;;5054532;28;20198;-73
2023/01/24 04:34:15;;;;;;;18.30;14.80;;;4.70;99.90;;;;;;5074164;28;20182;-72
2023/01/24 04:36:41;;;;;;;20.57;15.33;;;4.90;99.90;;;;;;5076834;28;20185;-73
2023/01/24 04:39:06;;;;;;;23.07;17.37;;;5.00;99.90;;;;;;5076478;28;20252;-73
2023/01/24 04:41:32;;;;;;;21.73;15.20;;;5.10;99.90;;;;;;5076366;28;20166;-73
2023/01/24 04:43:57;;;;;;;20.27;15.00;;;4.90;99.90;;;;;;5075997;28;20192;-73
2023/01/24 04:46:23;;;;;;;23.20;17.17;;;5.00;99.90;;;;;;5057971;28;20166;-73
2023/01/24 04:48:49;;;;;;;22.27;17.57;;;5.00;99.90;;;;;;5056860;28;20176;-72
2023/01/24 04:51:14;;;;;;;20.33;15.93;;;5.10;99.90;;;;;;5076037;28;20247;-72
2023/01/24 04:53:40;;;;;;;23.27;17.67;;;4.80;99.90;;;;;;5075899;28;20247;-73
2023/01/24 04:56:07;;;;;;;19.37;15.60;;;5.00;99.90;;;;;;5075806;28;20183;-73
2023/01/24 04:58:33;;;;;;;22.07;15.90;;;5.20;99.90;;;;;;5076074;28;20894;-73
2023/01/24 05:00:59;;;;;;;22.57;16.77;;;5.00;99.90;;;;;;5075715;28;20397;-73
2023/01/24 05:03:24;;;;;;;24.57;17.30;;;5.20;99.90;;;;;;5075622;28;20821;-73
2023/01/24 05:05:51;;;;;;;21.97;16.70;;;5.50;99.90;;;;;;5075535;28;20277;-73
2023/01/24 05:08:16;;;;;;;18.57;14.70;;;5.30;99.90;;;;;;5075849;28;20170;-73
2023/01/24 05:10:42;;;;;;;20.23;16.53;;;5.30;99.90;;;;;;5057827;28;20433;-73
2023/01/24 05:13:07;;;;;;;19.43;16.23;;;5.40;99.90;;;;;;5076024;28;20250;-73
2023/01/24 05:15:33;;;;;;;20.27;16.47;;;5.40;99.90;;;;;;5075325;28;20206;-73
2023/01/24 05:17:59;;;;;;;20.53;16.00;;;5.40;99.90;;;;;;5057256;28;20182;-73
2023/01/24 05:20:24;;;;;;;19.87;15.33;;;5.20;99.90;;;;;;5075729;28;20165;-73
2023/01/24 05:22:50;;;;;;;20.30;16.07;;;5.10;99.90;;;;;;5075327;28;20174;-70
2023/01/24 05:25:16;;;;;;;21.80;17.50;;;5.10;99.90;;;;;;5073323;28;20206;-71
2023/01/24 05:27:43;;;;;;;17.60;14.53;;;5.10;99.90;;;;;;5073854;28;20170;-71
2023/01/24 05:30:09;;;;;;;21.47;16.50;;;5.20;99.90;;;;;;5075280;28;20404;-73
2023/01/24 05:32:35;;;;;;;25.87;17.57;;;4.90;99.90;;;;;;5073946;28;20554;-73
2023/01/24 05:35:00;;;;;;;22.30;16.80;;;4.90;99.90;;;;;;5056654;28;20460;-73
2023/01/24 05:37:26;;;;;;;19.30;15.60;;;4.80;99.90;;;;;;5055119;28;20174;-73
2023/01/24 05:39:51;;;;;;;19.43;17.13;;;4.70;99.90;;;;;;5043904;28;20175;-73
2023/01/24 05:42:17;;;;;;;22.00;17.60;;;4.90;99.90;;;;;;5075347;28;20174;-73
2023/01/24 05:44:42;;;;;;;25.13;18.90;;;5.10;99.90;;;;;;5074841;28;20237;-73
2023/01/24 05:47:08;;;;;;;21.17;17.30;;;5.00;99.90;;;;;;5075379;28;20253;-73
2023/01/24 05:49:33;;;;;;;22.73;16.83;;;5.00;99.90;;;;;;5073252;28;20178;-72
2023/01/24 05:51:59;;;;;;;22.50;17.47;;;5.00;99.90;;;;;;5075300;28;20198;-73
2023/01/24 05:54:25;;;;;;;23.40;17.73;;;4.90;99.90;;;;;;5074845;28;20255;-73
2023/01/24 05:56:50;;;;;;;22.50;16.90;;;5.00;99.90;;;;;;5074865;28;20166;-73
2023/01/24 05:59:16;;;;;;;20.50;17.37;;;4.90;99.90;;;;;;5074717;28;20176;-73
2023/01/24 06:01:41;;;;;;;22.83;18.17;;;5.00;99.90;;;;;;5075042;28;20660;-73
2023/01/24 06:04:07;;;;;;;22.30;16.63;;;5.00;99.90;;;;;;5111826;22;20324;31
2023/01/24 06:06:32;;;;;;;24.87;18.17;;;4.80;99.90;;;;;;5012953;28;20212;-68
2023/01/24 06:08:58;;;;;;;24.27;18.60;;;4.80;99.90;;;;;;5014839;28;20543;-69
2023/01/24 06:11:27;;;;;;;19.87;15.70;;;4.80;99.90;;;;;;5013092;28;20178;-69
2023/01/24 06:13:54;;;;;;;24.07;18.17;;;5.00;99.90;;;;;;5014452;28;20226;-69
2023/01/24 06:16:22;;;;;;;25.87;18.63;;;5.00;99.90;;;;;;4996362;28;20435;-69
2023/01/24 06:18:49;;;;;;;23.50;18.30;;;4.90;99.90;;;;;;5048500;22;20492;-72
2023/01/24 06:21:33;;;;;;;21.37;17.30;;;5.10;99.90;;;;;;5074091;28;20412;-70
2023/01/24 06:23:59;;;;;;;22.00;17.43;;;5.00;99.90;;;;;;5055914;28;20486;-71
2023/01/24 06:26:25;;;;;;;26.20;19.63;;;5.00;99.90;;;;;;5074129;28;20392;-71
2023/01/24 06:28:51;;;;;;;25.70;18.97;;;5.10;99.90;;;;;;5073853;28;20487;-70
2023/01/24 06:31:50;;;;;;;27.67;18.07;;;5.00;99.90;;;;;;5073959;28;20397;-72
2023/01/24 06:34:40;;;;;;;22.20;17.10;;;5.10;99.90;;;;;;5073989;28;20162;-72
2023/01/24 06:37:08;;;;;;;21.70;17.23;;;5.20;99.90;;;;;;5073892;28;20879;-72
2023/01/24 06:39:34;;;;;;;23.77;17.33;;;5.10;99.90;;;;;;5073676;28;20408;-73
2023/01/24 06:42:00;;;;;;;24.07;18.03;;;4.90;99.90;;;;;;5074078;28;20395;-73
2023/01/24 06:44:26;;;;;;;23.80;18.00;;;4.90;99.90;;;;;;5055745;28;20181;-73
2023/01/24 06:46:52;;;;;;;20.57;17.00;;;5.00;99.90;;;;;;5073439;28;20491;-73
2023/01/24 06:49:17;;;;;;;23.23;16.67;;;5.10;99.90;;;;;;5054069;28;20268;-72
2023/01/24 06:51:49;;;;;;;22.83;17.70;;;5.00;99.90;;;;;;5073862;28;20193;-73
2023/01/24 06:54:16;;;;;;;23.40;17.80;;;4.90;99.90;;;;;;5073644;28;20150;-72
2023/01/24 06:56:41;;;;;;;23.53;17.10;;;4.70;99.90;;;;;;5073379;28;20407;-73
2023/01/24 06:59:07;;;;;;;21.47;17.93;;;4.40;99.90;;;;;;5073463;28;20934;-72
2023/01/24 07:01:32;;;;;;;28.47;20.67;;;4.40;99.90;;;;;;5074060;28;20248;-72
2023/01/24 07:03:58;;;;;;;30.57;19.53;;;4.40;99.90;;;;;;5073059;28;20158;-72
2023/01/24 07:06:23;;;;;;;25.17;19.40;;;4.30;99.90;;;;;;5073671;28;20179;-72
2023/01/24 07:08:49;;;;;;;28.20;19.83;;;4.20;99.90;;;;;;5073072;28;20177;-71
2023/01/24 07:11:15;;;;;;;26.43;20.00;;;4.20;99.90;;;;;;5073223;28;20549;-71
2023/01/24 07:13:40;;;;;;;27.67;20.57;;;4.20;99.90;;;;;;5072963;28;20284;-72
2023/01/24 07:16:06;;;;;;;27.00;20.13;;;4.30;99.90;;;;;;5073541;28;20150;-72
2023/01/24 07:18:32;;;;;;;25.27;18.47;;;4.40;99.90;;;;;;5072837;28;20213;-72
2023/01/24 07:20:58;;;;;;;25.70;19.07;;;4.30;99.90;;;;;;5073532;28;20170;-72
2023/01/24 07:23:28;;;;;;;23.50;18.33;;;4.30;99.90;;;;;;5073325;28;20551;-72
2023/01/24 07:25:54;;;;;;;28.20;18.93;;;4.20;99.90;;;;;;5073332;28;20412;-72
2023/01/24 07:28:20;;;;;;;31.23;20.80;;;4.00;99.90;;;;;;5073171;28;20430;-72
2023/01/24 07:30:46;;;;;;;26.90;19.20;;;4.20;99.90;;;;;;5073098;28;20907;-72
2023/01/24 07:33:13;;;;;;;31.20;22.80;;;4.30;99.90;;;;;;5072678;28;20189;-73
2023/01/24 07:35:40;;;;;;;23.57;17.77;;;4.40;99.90;;;;;;5055061;28;20984;-72
2023/01/24 07:38:05;;;;;;;24.37;18.40;;;4.40;99.90;;;;;;5073526;28;20495;-72
2023/01/24 07:40:31;;;;;;;26.27;18.83;;;4.30;99.90;;;;;;5058778;28;20435;-72
2023/01/24 07:43:00;;;;;;;28.23;18.93;;;4.10;99.90;;;;;;5053851;28;20174;-72
2023/01/24 07:45:25;;;;;;;24.97;18.10;;;4.00;99.90;;;;;;5053744;28;20178;-72
2023/01/24 07:47:55;;;;;;;27.20;19.63;;;4.10;99.90;;;;;;5054376;28;20818;-72
2023/01/24 07:50:21;;;;;;;25.93;18.63;;;4.10;99.90;;;;;;5054948;28;20185;-72
2023/01/24 07:52:50;;;;;;;23.70;19.00;;;4.20;99.90;;;;;;5054718;28;20970;-71
2023/01/24 07:55:16;;;;;;;26.77;18.20;;;4.20;99.90;;;;;;5073614;28;20193;-71
2023/01/24 07:57:41;;;;;;;24.57;18.37;;;4.30;99.90;;;;;;5072872;28;20795;-71
2023/01/24 08:00:08;;;;;;;24.60;18.53;;;4.20;99.90;;;;;;5072944;28;20668;-71
2023/01/24 08:02:33;;;;;;;22.03;17.20;;;4.10;99.90;;;;;;5072890;28;20223;-71
2023/01/24 08:04:59;;;;;;;25.80;19.50;;;4.10;99.90;;;;;;5072514;28;20416;-71
2023/01/24 08:07:24;;;;;;;23.67;17.63;;;4.10;99.90;;;;;;5057324;28;20178;-72
2023/01/24 08:09:50;;;;;;;27.20;20.33;;;4.10;99.90;;;;;;5081637;28;20201;-72
2023/01/24 08:12:16;;;;;;;27.07;18.30;;;4.20;99.90;;;;;;5083793;28;20185;-73
2023/01/24 08:14:41;;;;;;;20.20;16.57;;;4.30;99.90;;;;;;5084523;28;20170;-72
2023/01/24 08:17:07;;;;;;;23.03;17.10;;;4.40;99.90;;;;;;5063907;28;20495;-71
2023/01/24 08:19:35;;;;;;;22.27;17.27;;;4.20;99.90;;;;;;5081148;28;20209;-71
2023/01/24 08:22:01;;;;;;;24.33;18.60;;;4.30;99.90;;;;;;5082405;28;20419;-71
2023/01/24 08:24:26;;;;;;;24.77;19.20;;;4.20;99.90;;;;;;5083974;28;20408;-72
2023/01/24 08:26:52;;;;;;;22.77;16.80;;;4.30;99.90;;;;;;5086996;28;20781;-71
2023/01/24 08:29:18;;;;;;;25.90;17.20;;;4.30;99.90;;;;;;5081841;28;20675;-72
2023/01/24 08:31:43;;;;;;;25.60;18.00;;;4.20;99.90;;;;;;5082162;28;20197;-72
2023/01/24 08:34:10;;;;;;;21.27;16.90;;;4.30;99.90;;;;;;5081827;28;20167;-72
2023/01/24 08:36:35;;;;;;;25.17;16.50;;;4.30;99.90;;;;;;5079328;28;20162;-72
2023/01/24 08:39:04;;;;;;;25.37;17.60;;;4.30;99.90;;;;;;5076608;28;21104;-71
2023/01/24 08:41:29;;;;;;;22.77;18.30;;;4.30;99.90;;;;;;5076625;28;20169;-71
2023/01/24 08:43:55;;;;;;;24.30;19.23;;;4.40;99.90;;;;;;5076230;28;20400;-72
2023/01/24 08:46:20;;;;;;;28.07;20.73;;;4.50;99.90;;;;;;5076379;28;20170;-71
2023/01/24 08:48:46;;;;;;;23.60;17.90;;;4.70;99.90;;;;;;5056636;28;20220;-72
2023/01/24 08:51:11;;;;;;;21.10;16.57;;;4.60;99.90;;;;;;5076131;28;20173;-72
2023/01/24 08:53:37;;;;;;;23.50;18.20;;;4.50;99.90;;;;;;5075754;28;20201;-72
2023/01/24 08:56:03;;;;;;;21.73;16.03;;;4.40;99.90;;;;;;5076015;28;20170;-71
2023/01/24 08:58:29;;;;;;;26.40;18.87;;;4.50;99.90;;;;;;5075790;28;20242;-71
2023/01/24 09:00:54;;;;;;;22.73;17.27;;;4.50;99.90;;;;;;5076314;28;20404;-72
2023/01/24 09:03:20;;;;;;;20.00;15.77;;;4.60;99.90;;;;;;5075392;28;20181;-72
2023/01/24 09:05:46;;;;;;;23.80;16.60;;;4.70;99.90;;;;;;5076434;28;20200;-72
2023/01/24 09:08:12;;;;;;;20.63;16.23;;;4.50;99.90;;;;;;5075658;28;20169;-71
2023/01/24 09:10:38;;;;;;;22.77;17.07;;;4.50;99.90;;;;;;5058197;28;20235;-71
2023/01/24 09:13:04;;;;;;;24.13;16.40;;;4.60;99.90;;;;;;5075482;28;20440;-71
2023/01/24 09:15:31;;;;;;;22.20;18.33;;;4.60;99.90;;;;;;5075516;28;20454;-71
2023/01/24 09:18:01;;;;;;;24.27;16.80;;;4.50;99.90;;;;;;5075377;28;20523;-72
2023/01/24 09:20:27;;;;;;;24.83;16.53;;;4.60;99.90;;;;;;5074611;28;20432;-71
2023/01/24 09:22:52;;;;;;;21.50;16.83;;;4.60;99.90;;;;;;5075292;28;20906;-71
2023/01/24 09:25:18;;;;;;;25.17;17.63;;;4.70;99.90;;;;;;5075459;28;20223;-71
2023/01/24 09:27:44;;;;;;;21.87;16.77;;;4.70;99.90;;;;;;5075458;28;20627;-72
2023/01/24 09:30:10;;;;;;;24.93;19.23;;;4.60;99.90;;;;;;5075211;28;20644;-71
2023/01/24 09:32:36;;;;;;;27.17;18.80;;;4.90;99.90;;;;;;5075603;28;20543;-72
2023/01/24 09:35:02;;;;;;;22.60;17.20;;;5.20;99.90;;;;;;5075021;28;20423;-71
2023/01/24 09:37:28;;;;;;;24.73;17.27;;;5.00;99.90;;;;;;5052741;28;20469;-71
2023/01/24 09:39:55;;;;;;;23.00;17.50;;;4.90;99.90;;;;;;5055127;28;20424;-71
2023/01/24 09:42:41;;;;;;;21.90;16.67;;;5.10;99.90;;;;;;5058194;28;20178;-71
2023/01/24 09:45:35;;;;;;;22.33;16.73;;;4.90;99.90;;;;;;5055532;28;20402;-71
2023/01/24 09:48:04;;;;;;;24.10;17.70;;;5.10;99.90;;;;;;5053296;28;20425;-76
2023/01/24 09:50:48;;;;;;;23.40;17.50;;;5.30;99.90;;;;;;5074615;28;20413;-71
2023/01/24 09:53:25;;;;;;;18.20;14.40;;;4.80;99.90;;;;;;5074733;28;20436;-72
2023/01/24 09:55:52;;;;;;;23.67;15.67;;;4.60;99.90;;;;;;5075207;28;20392;-72
2023/01/24 09:58:53;;;;;;;20.93;15.63;;;4.50;99.90;;;;;;5075060;28;20421;-72
2023/01/24 10:01:19;;;;;;;20.27;14.67;;;4.60;99.90;;;;;;5032911;28;20423;-72
2023/01/24 10:03:44;;;;;;;20.13;16.20;;;4.60;99.90;;;;;;5074113;28;20404;-72
2023/01/24 10:06:17;;;;;;;18.87;14.93;;;4.60;99.90;;;;;;5074991;28;20534;-72
2023/01/24 10:09:21;;;;;;;17.17;14.13;;;4.80;99.90;;;;;;5074708;28;20190;-72
2023/01/24 10:11:57;;;;;;;23.77;16.70;;;4.70;99.90;;;;;;5056487;28;20483;-72
2023/01/24 10:14:48;;;;;;;18.20;13.80;;;4.70;99.90;;;;;;5074750;28;20840;-71
2023/01/24 10:17:36;;;;;;;21.73;14.67;;;4.60;99.90;;;;;;5074394;28;20874;-71
2023/01/24 10:20:18;;;;;;;19.17;14.03;;;4.50;99.90;;;;;;5073628;28;20440;-72
2023/01/24 10:23:15;;;;;;;19.97;13.87;;;4.60;99.90;;;;;;5074267;28;20420;-71
2023/01/24 10:26:11;;;;;;;18.37;15.07;;;4.60;99.90;;;;;;5056266;28;20412;-71
2023/01/24 10:28:40;;;;;;;20.43;13.70;;;4.60;99.90;;;;;;5073984;28;20455;-71
2023/01/24 10:31:38;;;;;;;18.87;15.20;;;4.40;99.90;;;;;;5073376;28;20404;-71
2023/01/24 10:34:19;;;;;;;17.33;13.67;;;4.50;99.90;;;;;;5001764;28;20468;-72
2023/01/24 10:36:57;;;;;;;18.33;13.63;;;4.60;99.90;;;;;;5074310;28;20377;-72
2023/01/24 10:39:23;;;;;;;18.40;12.43;;;4.70;99.90;;;;;;5074226;28;20427;-72
2023/01/24 10:41:49;;;;;;;21.10;14.40;;;4.90;99.90;;;;;;5074015;28;20750;-72
2023/01/24 10:44:15;;;;;;;15.67;13.03;;;4.90;99.90;;;;;;5056182;28;20960;-72
2023/01/24 10:46:50;;;;;;;15.60;12.73;;;4.90;99.90;;;;;;5073801;28;20628;-72
2023/01/24 10:49:35;;;;;;;16.60;13.60;;;4.90;99.90;;;;;;5072436;28;20873;-72
2023/01/24 10:52:13;;;;;;;15.37;12.30;;;4.90;99.90;;;;;;5073709;28;20780;-72
2023/01/24 10:54:58;;;;;;;16.53;12.67;;;4.70;99.90;;;;;;5073472;28;20431;-72
2023/01/24 10:57:49;;;;;;;16.00;13.07;;;4.80;99.90;;;;;;5073612;28;20754;-72
2023/01/24 11:00:18;;;;;;;17.27;12.80;;;5.00;99.90;;;;;;5073501;28;20458;-71
2023/01/24 11:02:49;;;;;;;16.00;12.37;;;5.00;99.90;;;;;;5073359;28;20404;-72
2023/01/24 11:05:16;;;;;;;16.50;12.83;;;5.10;99.90;;;;;;5073178;28;20768;-72
2023/01/24 11:07:59;;;;;;;15.27;12.10;;;5.10;99.90;;;;;;5073203;28;20426;-72
2023/01/24 11:10:41;;;;;;;21.63;13.50;;;5.10;99.90;;;;;;5073470;28;20443;-72
2023/01/24 11:13:28;;;;;;;21.70;14.90;;;5.20;99.90;;;;;;5073109;28;20439;-72
2023/01/24 11:16:06;;;;;;;18.93;14.37;;;5.30;99.90;;;;;;5073248;28;20400;-72
2023/01/24 11:18:34;;;;;;;13.20;11.50;;;5.60;99.90;;;;;;5072482;28;20439;-72
2023/01/24 11:21:08;;;;;;;12.67;11.30;;;5.70;99.90;;;;;;5073419;28;20462;-72
2023/01/24 11:23:34;;;;;;;13.07;10.27;;;5.50;99.90;;;;;;5073262;28;20408;-72
2023/01/24 11:26:02;;;;;;;13.33;10.37;;;5.50;99.90;;;;;;5055063;28;21045;-72
2023/01/24 11:28:29;;;;;;;17.00;13.10;;;5.60;99.90;;;;;;5073256;28;20198;-72
2023/01/24 11:30:59;;;;;;;13.17;11.77;;;5.70;99.90;;;;;;5073085;28;20495;-72
2023/01/24 11:33:34;;;;;;;15.27;12.33;;;5.70;99.90;;;;;;5072672;28;20547;-72
2023/01/24 11:36:36;;;;;;;17.63;13.13;;;5.90;99.90;;;;;;5073316;28;20467;-72
2023/01/24 11:39:22;;;;;;;18.67;13.73;;;5.80;99.90;;;;;;5055684;28;20540;-72
2023/01/24 11:42:02;;;;;;;13.73;11.07;;;5.80;99.90;;;;;;5066641;28;20823;-72
2023/01/24 11:44:50;;;;;;;15.33;11.70;;;5.60;99.90;;;;;;5053049;28;20386;-71
2023/01/24 11:47:19;;;;;;;13.43;11.20;;;5.60;99.90;;;;;;5053651;28;20389;-72
2023/01/24 11:50:08;;;;;;;14.60;12.17;;;5.20;99.90;;;;;;5066841;28;20436;-73
2023/01/24 11:52:58;;;;;;;14.13;11.10;;;5.30;99.90;;;;;;5073076;28;20508;-72
2023/01/24 11:55:36;;;;;;;14.97;11.23;;;5.50;99.90;;;;;;5073347;28;20381;-72
2023/01/24 11:58:13;;;;;;;15.97;12.10;;;5.80;99.90;;;;;;5073193;28;20530;-71
2023/01/24 12:01:34;;;;;;;15.33;12.80;;;5.90;99.90;;;;;;5073525;28;20841;-71
2023/01/24 12:04:11;;;;;;;17.07;12.63;;;5.80;99.90;;;;;;5051743;28;20452;-72
2023/01/24 12:06:43;;;;;;;15.07;12.10;;;5.90;99.90;;;;;;5072994;28;20401;-71
2023/01/24 12:09:19;;;;;;;14.30;11.57;;;5.70;99.90;;;;;;5072901;28;20444;-71
2023/01/24 12:12:16;;;;;;;15.80;13.50;;;5.80;99.90;;;;;;5072685;28;20390;-71
2023/01/24 12:14:50;;;;;;;15.20;11.90;;;5.80;99.90;;;;;;5033546;28;20444;-72
2023/01/24 12:17:24;;;;;;;17.40;11.93;;;5.70;99.90;;;;;;5072931;28;20387;-71
2023/01/24 12:20:17;;;;;;;17.90;13.00;;;6.00;99.90;;;;;;5072382;28;20880;-72
2023/01/24 12:22:43;;;;;;;16.73;11.57;;;6.10;99.90;;;;;;5072809;28;20888;-71
2023/01/24 12:25:32;;;;;;;15.70;11.50;;;6.00;99.90;;;;;;5072694;28;20413;-71
2023/01/24 12:28:04;;;;;;;18.80;12.30;;;5.60;99.90;;;;;;5072776;28;20163;-71
2023/01/24 12:30:40;;;;;;;13.40;11.97;;;5.40;99.90;;;;;;5072590;28;20396;-71
2023/01/24 12:33:26;;;;;;;15.60;12.70;;;5.70;99.90;;;;;;5072588;28;20440;-71
2023/01/24 12:36:15;;;;;;;15.50;13.77;;;5.90;99.90;;;;;;5054158;28;20433;-71
2023/01/24 12:38:51;;;;;;;24.83;17.00;;;5.80;99.90;;;;;;5072556;28;20799;-73
2023/01/24 12:41:33;;;;;;;16.03;13.17;;;5.80;99.90;;;;;;5072959;28;20388;-72
2023/01/24 12:44:22;;;;;;;18.40;14.17;;;5.40;99.90;;;;;;5072917;28;20395;-72
2023/01/24 12:47:19;;;;;;;17.57;12.67;;;5.40;99.90;;;;;;5072690;28;20382;-72
2023/01/24 12:50:12;;;;;;;18.43;14.73;;;5.50;99.90;;;;;;5070859;28;20440;-72
2023/01/24 12:52:49;;;;;;;14.93;11.93;;;5.60;99.90;;;;;;5072171;28;20441;-71
2023/01/24 12:55:27;;;;;;;17.40;12.17;;;5.40;99.90;;;;;;5073853;28;20384;-71
2023/01/24 12:58:04;;;;;;;14.30;12.50;;;5.50;99.90;;;;;;5076160;28;20422;-72
2023/01/24 13:00:40;;;;;;;16.00;12.57;;;5.70;99.90;;;;;;5076227;28;20400;-73
2023/01/24 13:03:25;;;;;;;16.23;13.30;;;5.80;99.90;;;;;;5057782;28;20386;-73
2023/01/24 13:06:16;;;;;;;16.53;13.10;;;5.60;99.90;;;;;;5075897;28;20397;-72
2023/01/24 13:09:09;;;;;;;16.00;12.90;;;5.30;99.90;;;;;;5076082;28;20425;-71
2023/01/24 13:11:42;;;;;;;13.33;11.43;;;5.40;99.90;;;;;;5075754;28;20381;-72
2023/01/24 13:14:40;;;;;;;15.47;11.93;;;5.40;99.90;;;;;;5075592;28;20474;-72
2023/01/24 13:17:30;;;;;;;12.30;10.87;;;5.40;99.90;;;;;;5068359;28;20417;-72
2023/01/24 13:20:08;;;;;;;20.67;16.40;;;5.30;99.90;;;;;;5056870;28;20834;-72
2023/01/24 13:22:36;;;;;;;11.33;10.03;;;5.50;99.90;;;;;;5075514;28;20765;-72
2023/01/24 13:25:13;;;;;;;21.17;12.77;;;5.50;99.90;;;;;;5075530;28;20499;-72
2023/01/24 13:27:44;;;;;;;13.00;11.00;;;5.40;99.90;;;;;;5075628;28;20948;-72
2023/01/24 13:30:13;;;;;;;11.60;10.40;;;5.30;99.90;;;;;;5075479;28;20455;-72